createdAt,value
2018-11-07T00:00:01.511Z,17.67
2018-11-07T00:02:30.852Z,16.70
2018-11-07T00:04:59.573Z,18.33
2018-11-07T00:07:28.270Z,18.63
2018-11-07T00:09:56.929Z,19.13
2018-11-07T00:12:25.757Z,17.53
2018-11-07T00:14:54.486Z,17.43
2018-11-07T00:17:23.148Z,18.20
2018-11-07T00:19:51.845Z,17.57
2018-11-07T00:22:20.487Z,17.60
2018-11-07T00:24:49.109Z,18.57
2018-11-07T00:27:17.822Z,16.17
2018-11-07T00:29:46.490Z,15.67
2018-11-07T00:32:15.117Z,17.80
2018-11-07T00:34:43.803Z,16.07
2018-11-07T00:37:12.431Z,16.93
2018-11-07T00:39:41.061Z,17.67
2018-11-07T00:44:44.645Z,18.40
2018-11-07T00:47:13.260Z,17.27
2018-11-07T00:49:41.971Z,17.13
2018-11-07T00:52:10.857Z,16.90
2018-11-07T00:54:39.685Z,16.07
2018-11-07T00:57:08.917Z,16.50
2018-11-07T00:59:37.913Z,17.47
2018-11-07T01:02:07.203Z,16.90
2018-11-07T01:04:35.902Z,17.30
2018-11-07T01:07:04.606Z,17.87
2018-11-07T01:09:33.348Z,17.40
2018-11-07T01:12:01.944Z,18.37
2018-11-07T01:14:30.622Z,18.60
2018-11-07T01:16:59.276Z,18.80
2018-11-07T01:19:27.937Z,18.20
2018-11-07T01:21:56.609Z,18.07
2018-11-07T01:24:25.233Z,18.03
2018-11-07T01:26:53.917Z,18.10
2018-11-07T01:29:22.722Z,19.00
2018-11-07T01:31:51.345Z,18.60
2018-11-07T01:34:19.969Z,18.37
2018-11-07T01:36:48.626Z,18.57
2018-11-07T01:39:17.282Z,17.63
2018-11-07T01:41:45.934Z,17.83
2018-11-07T01:44:14.578Z,18.57
2018-11-07T01:46:43.202Z,18.47
2018-11-07T01:49:11.884Z,19.37
2018-11-07T01:51:40.507Z,18.33
2018-11-07T01:54:09.129Z,19.67
2018-11-07T01:56:37.771Z,18.50
2018-11-07T01:59:06.452Z,18.20
2018-11-07T02:01:35.144Z,18.70
2018-11-07T02:04:03.971Z,18.87
2018-11-07T02:06:32.622Z,18.53
2018-11-07T02:09:01.312Z,19.00
2018-11-07T02:11:29.997Z,18.87
2018-11-07T02:13:58.625Z,20.00
2018-11-07T02:16:27.288Z,19.40
2018-11-07T02:18:55.908Z,19.47
2018-11-07T02:21:24.573Z,19.73
2018-11-07T02:23:53.220Z,18.77
2018-11-07T02:26:21.981Z,19.90
2018-11-07T02:28:50.569Z,19.00
2018-11-07T02:31:19.422Z,19.10
2018-11-07T02:33:48.103Z,19.13
2018-11-07T02:36:16.784Z,18.67
2018-11-07T02:38:45.442Z,19.67
2018-11-07T02:41:14.119Z,20.37
2018-11-07T02:43:42.815Z,19.33
2018-11-07T02:46:11.495Z,19.47
2018-11-07T02:48:40.195Z,19.90
2018-11-07T02:51:08.845Z,19.93
2018-11-07T02:53:37.593Z,20.23
2018-11-07T02:56:06.194Z,19.23
2018-11-07T02:58:34.923Z,19.27
2018-11-07T03:01:03.608Z,20.33
2018-11-07T03:03:32.234Z,20.07
2018-11-07T03:06:00.871Z,19.83
2018-11-07T03:08:32.275Z,19.83
2018-11-07T03:11:02.184Z,19.03
2018-11-07T03:13:30.811Z,18.87
2018-11-07T03:15:59.497Z,21.13
2018-11-07T03:18:28.336Z,21.13
2018-11-07T03:20:57.115Z,19.57
2018-11-07T03:23:25.786Z,19.77
2018-11-07T03:25:54.421Z,18.47
2018-11-07T03:28:23.125Z,19.40
2018-11-07T03:30:51.807Z,19.73
2018-11-07T03:33:20.447Z,19.70
2018-11-07T03:35:49.076Z,19.37
2018-11-07T03:38:17.777Z,19.07
2018-11-07T03:40:46.453Z,19.27
2018-11-07T03:43:15.072Z,19.77
2018-11-07T03:45:48.892Z,19.00
2018-11-07T03:48:17.578Z,19.43
2018-11-07T03:50:46.582Z,19.10
2018-11-07T03:53:15.309Z,19.13
2018-11-07T03:55:43.946Z,19.10
2018-11-07T03:58:12.667Z,18.67
2018-11-07T04:00:41.378Z,18.50
2018-11-07T04:03:10.024Z,18.33
2018-11-07T04:05:38.664Z,17.90
2018-11-07T04:08:07.399Z,17.50
2018-11-07T04:10:36.017Z,17.97
2018-11-07T04:13:04.913Z,19.27
2018-11-07T04:15:33.648Z,17.93
2018-11-07T04:18:02.340Z,18.80
2018-11-07T04:20:30.997Z,19.83
2018-11-07T04:22:59.630Z,17.53
2018-11-07T04:25:28.314Z,17.00
2018-11-07T04:27:56.920Z,16.00
2018-11-07T04:30:25.597Z,16.47
2018-11-07T04:32:54.316Z,16.60
2018-11-07T04:35:22.951Z,15.07
2018-11-07T04:37:51.638Z,16.97
2018-11-07T04:40:20.245Z,16.70
2018-11-07T04:42:48.936Z,16.77
2018-11-07T04:45:17.586Z,16.87
2018-11-07T04:47:46.257Z,16.50
2018-11-07T04:50:14.927Z,16.73
2018-11-07T04:52:43.661Z,16.27
2018-11-07T04:55:12.306Z,17.70
2018-11-07T04:57:41.008Z,18.50
2018-11-07T05:00:11.265Z,22.50
2018-11-07T05:02:40.024Z,24.47
2018-11-07T05:05:08.926Z,24.67
2018-11-07T05:07:37.561Z,25.73
2018-11-07T05:10:07.710Z,26.67
2018-11-07T05:12:36.389Z,25.63
2018-11-07T05:15:05.158Z,26.47
2018-11-07T05:17:34.190Z,23.53
2018-11-07T05:20:02.834Z,24.17
2018-11-07T05:22:31.526Z,20.27
2018-11-07T05:25:00.158Z,25.70
2018-11-07T05:27:28.756Z,23.27
2018-11-07T05:29:57.376Z,20.77
2018-11-07T05:32:26.023Z,23.27
2018-11-07T05:34:54.682Z,24.03
2018-11-07T05:37:23.444Z,22.50
2018-11-07T05:39:52.067Z,23.87
2018-11-07T05:42:21.007Z,26.80
2018-11-07T05:44:49.669Z,24.83
2018-11-07T05:47:18.306Z,24.73
2018-11-07T05:49:46.903Z,25.13
2018-11-07T05:52:15.565Z,27.13
2018-11-07T05:54:44.249Z,26.60
2018-11-07T05:57:12.918Z,27.93
2018-11-07T05:59:41.572Z,26.30
2018-11-07T06:02:10.222Z,26.70
2018-11-07T06:04:38.825Z,25.57
2018-11-07T06:07:07.500Z,27.90
2018-11-07T06:09:36.137Z,24.10
2018-11-07T06:12:05.226Z,23.10
2018-11-07T06:14:33.914Z,25.13
2018-11-07T06:17:02.533Z,24.17
2018-11-07T06:19:31.172Z,26.10
2018-11-07T06:21:59.796Z,24.33
2018-11-07T06:24:28.512Z,26.27
2018-11-07T06:26:57.140Z,23.90
2018-11-07T06:29:25.818Z,24.30
2018-11-07T06:31:54.428Z,27.23
2018-11-07T06:34:23.093Z,24.73
2018-11-07T06:36:51.750Z,24.30
2018-11-07T06:39:20.403Z,25.63
2018-11-07T06:41:49.041Z,25.47
2018-11-07T06:44:17.807Z,25.13
2018-11-07T06:46:46.522Z,25.53
2018-11-07T06:49:15.224Z,24.63
2018-11-07T06:51:43.841Z,27.00
2018-11-07T06:54:12.525Z,25.27
2018-11-07T06:56:41.217Z,24.87
2018-11-07T06:59:09.859Z,25.33
2018-11-07T07:01:38.571Z,26.40
2018-11-07T07:04:07.300Z,25.77
2018-11-07T07:06:36.015Z,26.70
2018-11-07T07:09:06.337Z,25.60
2018-11-07T07:11:35.046Z,26.07
2018-11-07T07:14:03.683Z,25.90
2018-11-07T07:16:32.362Z,27.07
2018-11-07T07:19:01.197Z,27.17
2018-11-07T07:21:29.841Z,25.53
2018-11-07T07:23:58.508Z,25.57
2018-11-07T07:26:27.222Z,25.37
2018-11-07T07:28:55.846Z,25.70
2018-11-07T07:31:24.542Z,26.63
2018-11-07T07:33:53.207Z,25.73
2018-11-07T07:36:21.813Z,25.80
2018-11-07T07:38:50.498Z,24.90
2018-11-07T07:41:19.194Z,24.70
2018-11-07T07:43:47.873Z,24.67
2018-11-07T07:46:16.590Z,26.67
2018-11-07T07:48:45.260Z,26.37
2018-11-07T07:51:13.899Z,28.70
2018-11-07T07:53:42.575Z,27.20
2018-11-07T07:56:11.255Z,30.37
2018-11-07T07:58:40.252Z,28.87
2018-11-07T08:01:08.917Z,29.57
2018-11-07T08:03:37.545Z,29.10
2018-11-07T08:06:06.446Z,28.40
2018-11-07T08:08:35.183Z,19.67
2018-11-07T08:11:03.867Z,16.67
2018-11-07T08:13:32.554Z,15.33
2018-11-07T08:16:01.210Z,15.43
2018-11-07T08:18:29.993Z,15.93
2018-11-07T08:20:58.667Z,15.43
2018-11-07T08:23:27.416Z,15.40
2018-11-07T08:25:56.084Z,15.90
2018-11-07T08:28:24.843Z,14.40
2018-11-07T08:30:53.608Z,16.97
2018-11-07T08:33:22.250Z,15.03
2018-11-07T08:35:50.938Z,15.40
2018-11-07T08:38:19.602Z,15.17
2018-11-07T08:40:48.298Z,14.80
2018-11-07T08:43:16.950Z,14.40
2018-11-07T08:45:45.590Z,14.87
2018-11-07T08:48:14.264Z,14.00
2018-11-07T08:50:42.906Z,14.33
2018-11-07T08:53:11.625Z,15.83
2018-11-07T08:55:40.366Z,17.20
2018-11-07T08:58:09.049Z,14.97
2018-11-07T09:00:37.757Z,14.83
2018-11-07T09:03:06.788Z,15.27
2018-11-07T09:05:35.425Z,15.37
2018-11-07T09:08:04.123Z,13.63
2018-11-07T09:10:32.806Z,14.40
2018-11-07T09:13:01.627Z,13.57
2018-11-07T09:15:30.377Z,15.73
2018-11-07T09:17:59.043Z,14.30
2018-11-07T09:20:27.690Z,15.37
2018-11-07T09:22:56.312Z,14.43
2018-11-07T09:25:24.930Z,14.10
2018-11-07T09:27:53.581Z,14.03
2018-11-07T09:30:23.532Z,14.67
2018-11-07T09:32:52.179Z,13.73
2018-11-07T09:35:21.318Z,15.20
2018-11-07T09:37:49.973Z,12.93
2018-11-07T09:40:20.021Z,13.30
2018-11-07T09:42:49.231Z,13.33
2018-11-07T09:45:19.322Z,13.20
2018-11-07T09:47:48.333Z,13.37
2018-11-07T09:50:17.713Z,13.70
2018-11-07T09:52:46.492Z,13.57
2018-11-07T09:55:18.400Z,13.90
2018-11-07T09:57:47.087Z,13.53
2018-11-07T10:00:18.254Z,13.60
2018-11-07T10:02:47.220Z,13.57
2018-11-07T10:05:16.959Z,12.47
2018-11-07T10:07:45.613Z,12.67
2018-11-07T10:10:16.029Z,13.17
2018-11-07T10:12:44.999Z,12.50
2018-11-07T10:15:13.923Z,12.63
2018-11-07T10:17:43.079Z,12.53
2018-11-07T10:20:15.683Z,12.37
2018-11-07T10:22:44.829Z,12.37
2018-11-07T10:25:13.885Z,11.93
2018-11-07T10:27:43.065Z,12.87
2018-11-07T10:30:13.626Z,13.40
2018-11-07T10:32:43.241Z,12.47
2018-11-07T10:35:11.907Z,12.63
2018-11-07T10:37:40.666Z,13.23
2018-11-07T10:40:11.393Z,12.40
2018-11-07T10:42:40.034Z,11.93
2018-11-07T10:45:09.320Z,12.90
2018-11-07T10:47:37.990Z,12.93
2018-11-07T10:50:08.665Z,11.97
2018-11-07T10:52:37.516Z,12.60
2018-11-07T10:55:07.030Z,11.97
2018-11-07T10:57:35.789Z,11.70
2018-11-07T11:00:20.338Z,12.00
2018-11-07T11:02:57.088Z,12.40
2018-11-07T11:05:25.891Z,11.53
2018-11-07T11:07:54.621Z,12.20
2018-11-07T11:10:23.361Z,12.13
2018-11-07T11:12:52.090Z,11.63
2018-11-07T11:15:25.588Z,11.67
2018-11-07T11:17:54.212Z,11.40
2018-11-07T11:20:22.881Z,12.23
2018-11-07T11:22:51.623Z,11.07
2018-11-07T11:25:20.294Z,11.33
2018-11-07T11:27:48.960Z,11.33
2018-11-07T11:30:17.687Z,12.43
2018-11-07T11:32:46.682Z,11.80
2018-11-07T11:35:15.482Z,10.87
2018-11-07T11:37:44.014Z,11.33
2018-11-07T11:40:13.968Z,11.60
2018-11-07T11:42:43.502Z,11.30
2018-11-07T11:45:14.300Z,11.07
2018-11-07T11:47:43.482Z,10.87
2018-11-07T11:50:14.461Z,12.50
2018-11-07T11:52:44.177Z,12.33
2018-11-07T11:55:13.790Z,11.87
2018-11-07T11:57:43.052Z,11.50
2018-11-07T12:00:14.135Z,12.00
2018-11-07T12:02:43.007Z,11.70
2018-11-07T12:05:13.645Z,11.23
2018-11-07T12:07:42.532Z,12.10
2018-11-07T12:10:17.083Z,12.23
2018-11-07T12:12:48.915Z,12.13
2018-11-07T12:15:18.709Z,13.03
2018-11-07T12:17:47.359Z,12.43
2018-11-07T12:20:16.034Z,11.60
2018-11-07T12:22:44.706Z,11.80
2018-11-07T12:25:14.294Z,13.03
2018-11-07T12:27:43.491Z,12.10
2018-11-07T12:30:14.419Z,12.60
2018-11-07T12:32:44.145Z,12.90
2018-11-07T12:35:12.946Z,12.37
2018-11-07T12:37:41.942Z,11.40
2018-11-07T12:40:11.315Z,12.17
2018-11-07T12:42:40.168Z,11.53
2018-11-07T12:45:10.113Z,11.90
2018-11-07T12:47:39.165Z,11.53
2018-11-07T12:50:11.276Z,12.40
2018-11-07T12:52:39.952Z,11.73
2018-11-07T12:55:10.109Z,12.37
2018-11-07T12:57:39.059Z,11.97
2018-11-07T13:00:11.327Z,10.87
2018-11-07T13:02:40.514Z,12.27
2018-11-07T13:05:10.644Z,12.93
2018-11-07T13:07:39.337Z,11.97
2018-11-07T13:10:11.029Z,12.70
2018-11-07T13:12:39.915Z,11.40
2018-11-07T13:15:09.828Z,11.83
2018-11-07T13:17:38.545Z,11.43
2018-11-07T13:20:10.326Z,12.80
2018-11-07T13:22:39.090Z,14.00
2018-11-07T13:25:08.694Z,12.37
2018-11-07T13:27:37.335Z,13.03
2018-11-07T13:30:11.988Z,12.13
2018-11-07T13:32:40.887Z,11.43
2018-11-07T13:35:10.469Z,12.60
2018-11-07T13:37:39.959Z,13.43
2018-11-07T13:40:11.153Z,13.03
2018-11-07T13:42:39.818Z,13.20
2018-11-07T13:45:10.437Z,13.33
2018-11-07T13:47:39.744Z,11.97
2018-11-07T13:50:08.625Z,12.80
2018-11-07T13:52:37.287Z,12.63
2018-11-07T13:55:07.617Z,12.93
2018-11-07T13:57:36.233Z,12.03
2018-11-07T14:00:09.585Z,12.43
2018-11-07T14:02:38.268Z,12.67
2018-11-07T14:05:07.847Z,12.97
2018-11-07T14:07:36.654Z,13.77
2018-11-07T14:10:07.085Z,14.37
2018-11-07T14:12:35.833Z,12.63
2018-11-07T14:15:05.322Z,13.27
2018-11-07T14:17:33.952Z,12.57
2018-11-07T14:20:02.647Z,13.43
2018-11-07T14:22:31.342Z,12.50
2018-11-07T14:25:00.015Z,13.97
2018-11-07T14:27:29.178Z,13.13
2018-11-07T14:29:58.890Z,14.00
2018-11-07T14:32:28.209Z,14.50
2018-11-07T14:34:57.754Z,15.40
2018-11-07T14:37:26.416Z,13.60
2018-11-07T14:39:55.101Z,13.27
2018-11-07T14:42:23.737Z,15.03
2018-11-07T14:44:52.366Z,15.87
2018-11-07T14:47:21.088Z,15.60
2018-11-07T14:49:49.713Z,14.93
2018-11-07T14:52:18.356Z,15.47
2018-11-07T14:54:47.008Z,16.93
2018-11-07T14:57:15.637Z,15.20
2018-11-07T14:59:44.290Z,16.73
2018-11-07T15:02:12.942Z,15.63
2018-11-07T15:04:41.556Z,16.13
2018-11-07T15:07:10.262Z,15.33
2018-11-07T15:09:38.911Z,17.30
2018-11-07T15:12:07.905Z,18.30
2018-11-07T15:14:36.605Z,21.93
2018-11-07T15:17:05.475Z,21.17
2018-11-07T15:19:34.213Z,23.87
2018-11-07T15:22:02.934Z,23.40
2018-11-07T15:24:31.596Z,21.97
2018-11-07T15:27:00.258Z,24.00
2018-11-07T15:29:28.915Z,22.27
2018-11-07T15:31:57.579Z,23.00
2018-11-07T15:34:26.257Z,26.43
2018-11-07T15:36:54.897Z,26.63
2018-11-07T15:39:23.556Z,30.27
2018-11-07T15:41:52.186Z,32.60
2018-11-07T15:44:20.825Z,33.90
2018-11-07T15:46:49.458Z,34.43
2018-11-07T15:49:18.153Z,38.23
2018-11-07T15:51:46.867Z,39.67
2018-11-07T15:54:15.523Z,45.43
2018-11-07T15:56:44.216Z,40.77
2018-11-07T15:59:13.025Z,36.50
2018-11-07T16:01:41.657Z,40.03
2018-11-07T16:04:10.293Z,47.80
2018-11-07T16:06:39.031Z,49.23
2018-11-07T16:09:09.349Z,48.67
2018-11-07T16:11:38.106Z,48.47
2018-11-07T16:14:06.786Z,51.87
2018-11-07T16:16:35.422Z,51.53
2018-11-07T16:19:04.088Z,53.53
2018-11-07T16:21:32.746Z,53.13
2018-11-07T16:24:01.429Z,52.30
2018-11-07T16:26:30.007Z,51.67
2018-11-07T16:28:59.518Z,43.47
2018-11-07T16:31:28.203Z,44.40
2018-11-07T16:33:56.895Z,43.17
2018-11-07T16:36:25.553Z,48.33
2018-11-07T16:38:54.210Z,36.57
2018-11-07T16:41:22.952Z,40.70
2018-11-07T16:43:51.573Z,38.20
2018-11-07T16:46:20.231Z,39.60
2018-11-07T16:48:48.865Z,31.27
2018-11-07T16:51:17.525Z,29.33
2018-11-07T16:53:46.125Z,27.20
2018-11-07T16:56:14.773Z,25.40
2018-11-07T16:58:43.446Z,24.17
2018-11-07T17:01:26.972Z,25.43
2018-11-07T17:03:55.662Z,28.33
2018-11-07T17:06:24.321Z,29.93
2018-11-07T17:08:52.981Z,26.83
2018-11-07T17:11:21.612Z,26.40
2018-11-07T17:13:50.251Z,26.80
2018-11-07T17:16:18.904Z,30.47
2018-11-07T17:18:47.562Z,33.07
2018-11-07T17:21:16.226Z,29.63
2018-11-07T17:23:44.841Z,27.90
2018-11-07T17:26:13.523Z,30.10
2018-11-07T17:28:42.138Z,29.93
2018-11-07T17:31:10.755Z,31.07
2018-11-07T17:33:39.396Z,32.87
2018-11-07T17:36:08.054Z,31.23
2018-11-07T17:38:36.773Z,30.20
2018-11-07T17:41:05.473Z,29.20
2018-11-07T17:43:34.222Z,30.33
2018-11-07T17:46:02.813Z,29.17
2018-11-07T17:48:31.525Z,29.27
2018-11-07T17:51:00.184Z,32.93
2018-11-07T17:53:28.902Z,32.00
2018-11-07T17:55:57.634Z,33.20
2018-11-07T17:58:26.332Z,36.20
2018-11-07T18:00:54.961Z,33.83
2018-11-07T18:03:23.595Z,32.43
2018-11-07T18:05:52.311Z,31.63
2018-11-07T18:08:20.942Z,31.90
2018-11-07T18:10:49.541Z,30.57
2018-11-07T18:13:18.227Z,31.23
2018-11-07T18:15:46.845Z,28.67
2018-11-07T18:18:15.466Z,29.23
2018-11-07T18:20:44.150Z,28.63
2018-11-07T18:23:12.814Z,29.80
2018-11-07T18:25:41.491Z,30.37
2018-11-07T18:28:10.123Z,26.47
2018-11-07T18:30:38.752Z,27.60
2018-11-07T18:33:07.394Z,27.97
2018-11-07T18:35:36.423Z,27.93
2018-11-07T18:38:05.067Z,28.97
2018-11-07T18:40:33.734Z,29.20
2018-11-07T18:43:02.509Z,29.57
2018-11-07T18:45:31.165Z,26.77
2018-11-07T18:47:59.849Z,28.97
2018-11-07T18:50:28.553Z,27.70
2018-11-07T18:52:57.229Z,27.07
2018-11-07T18:55:27.034Z,24.77
2018-11-07T18:57:55.687Z,27.93
2018-11-07T19:00:24.359Z,26.80
2018-11-07T19:02:52.972Z,27.67
2018-11-07T19:05:21.694Z,29.10
2018-11-07T19:07:50.360Z,30.47
2018-11-07T19:10:20.393Z,31.67
2018-11-07T19:12:49.558Z,32.63
2018-11-07T19:15:18.685Z,31.37
2018-11-07T19:17:48.537Z,30.40
2018-11-07T19:20:17.724Z,33.33
2018-11-07T19:22:46.438Z,34.40
2018-11-07T19:25:16.517Z,35.03
2018-11-07T19:27:45.276Z,34.97
2018-11-07T19:30:16.546Z,35.93
2018-11-07T19:32:46.254Z,33.37
2018-11-07T19:35:15.999Z,35.40
2018-11-07T19:37:45.060Z,35.77
2018-11-07T19:40:15.062Z,32.90
2018-11-07T19:42:43.722Z,34.27
2018-11-07T19:45:14.743Z,31.93
2018-11-07T19:47:43.433Z,29.00
2018-11-07T19:50:13.089Z,25.33
2018-11-07T19:52:41.818Z,23.73
2018-11-07T19:55:12.944Z,25.20
2018-11-07T19:57:41.829Z,25.60
2018-11-07T20:00:13.201Z,21.43
2018-11-07T20:02:42.267Z,22.27
2018-11-07T20:05:10.973Z,24.63
2018-11-07T20:07:39.858Z,24.13
2018-11-07T20:10:11.908Z,25.80
2018-11-07T20:12:40.590Z,24.50
2018-11-07T20:15:10.762Z,24.83
2018-11-07T20:17:39.402Z,27.63
2018-11-07T20:20:08.410Z,26.27
2018-11-07T20:22:37.150Z,26.40
2018-11-07T20:25:07.177Z,26.73
2018-11-07T20:27:35.832Z,27.00
2018-11-07T20:30:08.557Z,26.53
2018-11-07T20:32:37.295Z,29.63
2018-11-07T20:35:07.230Z,28.17
2018-11-07T20:37:35.889Z,26.57
2018-11-07T20:40:04.943Z,27.80
2018-11-07T20:42:33.662Z,26.37
2018-11-07T20:45:02.250Z,30.27
2018-11-07T20:47:30.875Z,27.63
2018-11-07T20:50:00.384Z,29.33
2018-11-07T20:52:29.126Z,28.77
2018-11-07T20:54:57.811Z,29.13
2018-11-07T20:57:26.369Z,29.13
2018-11-07T20:59:54.969Z,29.87
2018-11-07T21:02:23.628Z,29.50
2018-11-07T21:04:52.294Z,29.13
2018-11-07T21:07:20.949Z,30.20
2018-11-07T21:09:49.588Z,28.03
2018-11-07T21:12:18.218Z,27.47
2018-11-07T21:14:46.867Z,28.40
2018-11-07T21:17:15.549Z,27.90
2018-11-07T21:19:44.187Z,34.43
2018-11-07T21:22:13.820Z,29.23
2018-11-07T21:24:42.480Z,31.43
2018-11-07T21:27:11.208Z,28.83
2018-11-07T21:29:39.825Z,29.97
2018-11-07T21:32:08.486Z,31.17
2018-11-07T21:34:37.182Z,29.57
2018-11-07T21:37:05.938Z,31.80
2018-11-07T21:39:34.742Z,29.80
2018-11-07T21:42:03.365Z,31.03
2018-11-07T21:44:32.106Z,29.63
2018-11-07T21:47:00.754Z,29.13
2018-11-07T21:49:36.114Z,29.27
2018-11-07T21:52:05.191Z,28.17
2018-11-07T21:54:33.863Z,32.83
2018-11-07T21:57:02.611Z,36.33
2018-11-07T21:59:31.249Z,35.00
2018-11-07T22:01:59.929Z,37.17
2018-11-07T22:04:28.596Z,37.07
2018-11-07T22:06:57.253Z,35.97
2018-11-07T22:09:25.861Z,38.00
2018-11-07T22:11:54.514Z,39.87
2018-11-07T22:14:23.185Z,39.97
2018-11-07T22:16:51.846Z,39.00
2018-11-07T22:19:20.626Z,37.70
2018-11-07T22:21:49.275Z,37.80
2018-11-07T22:24:17.904Z,35.17
2018-11-07T22:26:46.598Z,32.90
2018-11-07T22:29:15.290Z,33.13
2018-11-07T22:31:44.008Z,32.50
2018-11-07T22:34:12.682Z,33.03
2018-11-07T22:36:41.394Z,29.93
2018-11-07T22:39:12.794Z,31.93
2018-11-07T22:41:41.414Z,31.23
2018-11-07T22:44:10.612Z,32.67
2018-11-07T22:46:39.345Z,31.30
2018-11-07T22:49:07.969Z,31.87
2018-11-07T22:51:36.686Z,32.53
2018-11-07T22:54:05.505Z,31.43
2018-11-07T22:56:34.165Z,33.40
2018-11-07T22:59:02.822Z,31.63
2018-11-07T23:01:36.518Z,33.20
2018-11-07T23:04:05.401Z,32.03
2018-11-07T23:06:34.215Z,30.30
2018-11-07T23:09:02.951Z,32.10
2018-11-07T23:11:32.095Z,34.97
2018-11-07T23:14:00.739Z,34.63
2018-11-07T23:16:29.363Z,33.70
2018-11-07T23:18:58.046Z,35.50
2018-11-07T23:21:26.699Z,36.73
2018-11-07T23:23:55.395Z,34.77
2018-11-07T23:26:24.210Z,34.57
2018-11-07T23:28:52.854Z,33.37
2018-11-07T23:31:21.898Z,34.17
2018-11-07T23:33:50.537Z,31.53
2018-11-07T23:36:19.142Z,33.50
2018-11-07T23:38:47.861Z,32.93
2018-11-07T23:41:16.496Z,30.97
2018-11-07T23:43:45.100Z,29.50
2018-11-07T23:46:13.774Z,31.90
2018-11-07T23:48:42.377Z,33.37
2018-11-07T23:51:11.044Z,31.60
2018-11-07T23:53:39.669Z,31.73
2018-11-07T23:56:08.312Z,31.07
2018-11-07T23:58:36.953Z,30.67
